Private Wetterstation Nrnberg - Katzwang
Wetterdaten: Januar 2012
Datum Temp. A. Feuchte A. Luftdruck Regen Wind Richtung Taupunkt Windchill Windben
01.01.2012 8,8 C 89 % 1013 hPa 2,1 l/m 6,1 km/h W-NW 7,0 C 8,4 C 7,1 km/h
02.01.2012 7,4 C 88 % 1011 hPa 1,6 l/m 6,7 km/h N 5,5 C 5,3 C 7,7 km/h
03.01.2012 6,1 C 74 % 1014 hPa 0,0 l/m 7,7 km/h W-NW 1,8 C 4,9 C 8,7 km/h
04.01.2012 4,7 C 79 % 1014 hPa 6,7 l/m 18,1 km/h W-NW 1,2 C -2,0 C 33,2 km/h
05.01.2012 3,2 C 87 % 993 hPa 12,9 l/m 7,7 km/h W-NW 1,1 C 0,8 C 15,6 km/h
06.01.2012 3,6 C 84 % 1013 hPa 1,0 l/m 6,0 km/h W-NW 1,0 C 1,3 C 11,4 km/h
07.01.2012 3,6 C 85 % 1014 hPa 2,6 l/m 17,1 km/h W-NW 1,3 C -3,2 C 24,6 km/h
08.01.2012 3,7 C 87 % 1017 hPa 3,1 l/m 4,4 km/h W-NW 1,7 C 2,6 C 5,4 km/h
09.01.2012 4,5 C 87 % 1024 hPa 1,0 l/m 8,6 km/h W-NW 2,5 C 2,6 C 9,6 km/h
10.01.2012 3,9 C 85 % 1029 hPa 0,5 l/m 4,3 km/h W-NW 1,5 C 3,1 C 5,3 km/h
11.01.2012 4,9 C 84 % 1030 hPa 0,0 l/m 0,3 km/h W-NW 2,4 C 4,9 C 1,4 km/h
12.01.2012 5,9 C 82 % 1020 hPa 0,5 l/m 8,0 km/h W-NW 3,0 C 3,5 C 13,1 km/h
13.01.2012 2,4 C 79 % 1020 hPa 1,0 l/m 4,6 km/h W-NW -0,9 C 1,2 C 8,5 km/h
14.01.2012 -0,4 C 82 % 1021 hPa 0,0 l/m 5,7 km/h W-NW -3,2 C -3,0 C 8,5 km/h
15.01.2012 -3,7 C 84 % 1021 hPa 0,0 l/m 1,0 km/h N-NO -6,1 C -3,7 C 2,0 km/h
16.01.2012 -5,0 C 80 % 1024 hPa 0,0 l/m 0,0 km/h N-NO -8,0 C -5,0 C 1,0 km/h
17.01.2012 -3,9 C 81 % 1027 hPa 0,0 l/m 0,0 km/h O-NO -6,9 C -3,9 C 1,0 km/h
18.01.2012 -1,7 C 76 % 1026 hPa 0,0 l/m 0,0 km/h NO -5,5 C -1,7 C 1,0 km/h
19.01.2012 5,3 C 87 % 1014 hPa 25,9 l/m 6,2 km/h W-NW 3,3 C 4,2 C 10,4 km/h
20.01.2012 1,8 C 86 % 1011 hPa 2,6 l/m 2,6 km/h W-NW -0,3 C 0,9 C 3,6 km/h
21.01.2012 4,3 C 88 % 1005 hPa 13,5 l/m 6,1 km/h W-NW 2,5 C 3,3 C 7,2 km/h
22.01.2012 4,9 C 84 % 1007 hPa 2,1 l/m 16,4 km/h W-NW 2,3 C -0,9 C 26,3 km/h
23.01.2012 3,5 C 84 % 1012 hPa 1,0 l/m 3,1 km/h W-NW 1,1 C 2,4 C 4,1 km/h
24.01.2012 0,7 C 86 % 1018 hPa 2,1 l/m 6,0 km/h W-NW -1,4 C -1,6 C 7,5 km/h
25.01.2012 -0,5 C 87 % 1020 hPa 0,0 l/m 4,8 km/h NO -2,4 C -1,4 C 5,8 km/h
26.01.2012 -2,0 C 83 % 1019 hPa 0,0 l/m 4,7 km/h O -4,6 C -2,6 C 5,7 km/h
27.01.2012 -0,2 C 82 % 1021 hPa 0,0 l/m 4,1 km/h O -2,9 C -1,1 C 5,1 km/h
28.01.2012 -0,1 C 86 % 1023 hPa 1,6 l/m 0,0 km/h O -2,1 C -0,1 C 1,0 km/h
29.01.2012 -1,4 C 84 % 1021 hPa 0,0 l/m 2,6 km/h N-NO -3,8 C -1,7 C 3,6 km/h
Min-Datum 16.01.12 18.01.12 05.01.12 18 Tage 01.01.12 - 16.01.12 26.01.12 01.01.12
Min-Zeit 07:10 15:10 12:40 - 00:00 - 07:30 05:40 00:00
Minimum -8,9 C 54 % 987 hPa - 0,0 km/h - -10,8 C -14,8 C 1,0 km/h
Max-Datum 02.01.12 01.01.12 10.01.12 19.01.12 05.01.12 - 01.01.12 02.01.12 13.01.12
Max-Zeit 13:20 01:30 16:10 20:30 23:20 - 13:50 13:20 13:40
Maximum 10,8 C 89 % 1031 hPa 25,9 l/m 39,7 km/h
W-NW
- 8,7 C 10,8 C 78,3 km/h
W-NW
Durchschnitt 2,2 C 84 % 1017 hPa #81,8 l/m 5,6 km/h W-NW -0,3 C 0,6 C 8,5 km/h

Durchschnitt Minimum Temp.-0,4 C
Durchschnitt Maximum Temp.5,1 C